Aérodrome :
LOGIN :

S'inscrire | Disclaimer

   EN    FR    IT 

 










Légende :    VFR   VFR Marginal   IFR   IFR Intensif   IFR Très Intensif
Visi : 
Plafond : 
>= 8 km
>= 3000ft
5 à 8 km
1000 à 3000 ft
1500m à 5 km
500 à 1000 ft
800 à 1500m
200 à 500 ft
< 800m
< 200 ft
Symboles :   Orages  Brouillard  Fortes neiges  Fortes précipitations  Vent > 20 kt
SIGMETs :   Divers  Orages  Givrage  Turbulence  Onde Orograph.  Cendres Volcan.







- Altitude de l'aérodrome : 1966 ft
- Code IATA : SGE


EDGS - Siegerland

DERNIER METAR :
  • 250620Z 29010KT 240V320 6000 -RA SCT002 OVC003 02/02 Q1005 RERA

METARs EXPIRÉS :
  • 250550Z 30012KT 270V330 5000 RA BR OVC002 02/02 Q1005
  • 250520Z 30013KT 6000 RA OVC002 03/03 Q1005

TAF TAF EDGS
Valide du 25 à 07h jusqu'au 25 à 15h UTC


250626Z 2507/2515 29010KT 6000 SCT002 OVC003
TEMPO 2507/2511 2500 RA OVC001
BECMG 2509/2512 BKN014
TEMPO 2510/2515 28015G25KT
BECMG 2512/2515 BKN020
Pas de NOTAMs connus pour ce terrain.



MET'MAP, la Météo Aéronautique d'un coup d'oeil ! - Copyright ORBIFLY Décembre 2007 - Disclaimer

ORBIFLY MET'MAP TEAM :

Programmation & Développement : Alexandra Zaïnal
Conception & Développement : Baudouin d'Aumeries
Co-Programmation & Développement : Marc-Olivier Méhu
Soutien technique & logistique : Manuel Goepfert

Contact : metmap@orbifly.com




SOURCES & CREDITS :

   NOAA